Time;durP1;ratioP1;P1;durP2;ratioP2;P2;SDS_P1;SDS_P2;PMS_P1;PMS_P2;Temp;Humidity;BMP_temperature;BMP_pressure;BME280_temperature;BME280_humidity;BME280_pressure;Samples;Min_cycle;Max_cycle;Signal;HPM_P1;HPM_P2
2024/01/13 00:01:06;;;;;;;35.47;16.23;;;;;;;-1.59;74.75;97694.00;5083323;28;20048;-80
2024/01/13 00:03:34;;;;;;;38.08;17.02;;;;;;;-1.60;74.83;97700.00;5095176;28;20075;-81
2024/01/13 00:06:02;;;;;;;33.92;17.58;;;;;;;-1.59;75.04;97700.84;5075633;28;20044;-82
2024/01/13 00:08:31;;;;;;;37.13;16.33;;;;;;;-1.62;74.37;97683.91;5075281;28;20044;-81
2024/01/13 00:11:05;;;;;;;35.22;16.90;;;;;;;-1.66;74.16;97690.09;5095559;28;20051;-80
2024/01/13 00:13:33;;;;;;;37.22;17.73;;;;;;;-1.70;74.54;97689.44;5094687;28;20056;-78
2024/01/13 00:16:00;;;;;;;42.47;18.83;;;;;;;-1.68;74.84;97679.94;5082141;28;20051;-81
2024/01/13 00:18:28;;;;;;;38.30;18.05;;;;;;;-1.68;74.83;97679.13;5094856;28;20052;-81
2024/01/13 00:21:07;;;;;;;40.95;19.83;;;;;;;-1.62;75.66;97683.06;5094608;28;20053;-78
2024/01/13 00:23:36;;;;;;;39.90;18.55;;;;;;;-1.57;75.25;97687.06;5094614;28;20055;-78
2024/01/13 00:26:04;;;;;;;43.42;18.95;;;;;;;-1.53;75.03;97674.91;5074870;28;20080;-81
2024/01/13 00:28:32;;;;;;;35.42;17.00;;;;;;;-1.50;74.98;97690.13;5074431;28;20454;-85
2024/01/13 00:31:04;;;;;;;37.80;17.85;;;;;;;-1.49;74.86;97684.94;5081133;28;20130;-80
2024/01/13 00:33:32;;;;;;;42.80;19.05;;;;;;;-1.48;74.68;97680.63;5094230;28;20055;-79
2024/01/13 00:36:00;;;;;;;44.35;20.77;;;;;;;-1.53;74.02;97680.03;5092004;22;20080;-80
2024/01/13 00:38:28;;;;;;;44.25;19.95;;;;;;;-1.62;73.67;97681.34;5054710;28;20087;-80
2024/01/13 00:41:04;;;;;;;41.03;18.48;;;;;;;-1.68;74.62;97689.34;5053963;28;20098;-79
2024/01/13 00:43:34;;;;;;;42.55;20.00;;;;;;;-1.66;74.63;97675.56;5055828;28;20056;-81
2024/01/13 00:46:02;;;;;;;40.53;19.13;;;;;;;-1.64;74.68;97679.78;5045435;28;20095;-81
2024/01/13 00:48:30;;;;;;;43.75;18.50;;;;;;;-1.63;74.35;97686.56;5057248;28;20041;-81
2024/01/13 00:51:08;;;;;;;46.95;19.63;;;;;;;-1.69;74.03;97675.72;5056593;28;20049;-79
2024/01/13 00:53:36;;;;;;;41.25;20.52;;;;;;;-1.80;73.92;97683.13;5056601;28;20166;-81
2024/01/13 00:56:06;;;;;;;46.60;20.85;;;;;;;-1.84;74.44;97680.78;5038239;28;20073;-81
2024/01/13 00:58:34;;;;;;;46.63;21.13;;;;;;;-1.85;74.82;97684.28;5041245;28;20049;-81
2024/01/13 01:01:11;;;;;;;40.55;20.15;;;;;;;-1.84;74.92;97681.63;5047422;28;20056;-79
2024/01/13 01:03:40;;;;;;;48.08;21.58;;;;;;;-1.81;74.97;97678.91;5036900;28;20071;-81
2024/01/13 01:06:08;;;;;;;41.40;18.88;;;;;;;-1.78;74.79;97681.31;5055358;28;20041;-81
2024/01/13 01:08:36;;;;;;;45.53;20.15;;;;;;;-1.77;74.97;97682.13;5053506;28;20045;-81
2024/01/13 01:11:08;;;;;;;43.90;20.95;;;;;;;-1.76;74.74;97669.28;5055529;28;20048;-78
2024/01/13 01:13:37;;;;;;;45.05;21.17;;;;;;;-1.79;74.58;97672.00;5056539;28;20045;-80
2024/01/13 01:16:05;;;;;;;46.22;20.42;;;;;;;-1.80;75.16;97670.31;5049391;28;20045;-82
2024/01/13 01:18:33;;;;;;;42.45;19.48;;;;;;;-1.79;74.78;97666.03;5036418;28;20049;-79
2024/01/13 01:21:12;;;;;;;45.03;18.58;;;;;;;-1.80;74.30;97666.94;5036379;28;20049;-81
2024/01/13 01:23:41;;;;;;;41.95;18.02;;;;;;;-1.78;74.72;97667.69;5036217;28;20046;-79
2024/01/13 01:26:10;;;;;;;42.85;19.27;;;;;;;-1.79;74.75;97661.75;5037219;28;20038;-82
2024/01/13 01:28:37;;;;;;;42.00;18.00;;;;;;;-1.79;74.72;97663.47;5034943;28;20115;-79
2024/01/13 01:31:06;;;;;;;45.17;19.17;;;;;;;-1.78;74.68;97660.84;5045230;28;20052;-79
2024/01/13 01:33:35;;;;;;;42.08;19.90;;;;;;;-1.77;74.82;97654.84;5035569;28;20053;-84
2024/01/13 01:36:03;;;;;;;36.15;17.30;;;;;;;-1.75;75.20;97653.03;5035996;28;20056;-79
2024/01/13 01:38:31;;;;;;;40.00;17.92;;;;;;;-1.70;75.58;97658.72;5036063;28;20119;-80
2024/01/13 01:41:13;;;;;;;38.47;17.00;;;;;;;-1.70;74.79;97653.59;5049907;28;20049;-79
2024/01/13 01:43:41;;;;;;;40.50;18.08;;;;;;;-1.71;74.96;97651.13;5055456;28;20053;-79
2024/01/13 01:46:12;;;;;;;45.05;20.05;;;;;;;-1.71;74.56;97651.13;5046696;28;20644;-79
2024/01/13 01:48:42;;;;;;;33.63;16.77;;;;;;;-1.69;74.73;97642.47;5036106;28;20077;-81
2024/01/13 01:51:13;;;;;;;;;;;;;;;-1.62;75.20;97640.41;5053995;28;20425;-79
2024/01/13 01:53:41;;;;;;;35.25;16.13;;;;;;;-1.64;74.44;97641.41;5055714;28;20023;-81
2024/01/13 01:56:14;;;;;;;38.47;18.65;;;;;;;-1.74;73.55;97635.94;5038886;28;20046;-82
2024/01/13 01:58:43;;;;;;;40.33;19.13;;;;;;;-1.86;73.98;97627.16;5035365;28;20427;-80
2024/01/13 02:01:11;;;;;;;37.83;16.42;;;;;;;-1.91;74.37;97629.13;5052816;28;20045;-81
2024/01/13 02:03:40;;;;;;;40.83;18.30;;;;;;;-1.88;74.84;97634.09;5056558;28;20049;-80
2024/01/13 02:06:08;;;;;;;38.67;18.98;;;;;;;-1.90;74.20;97630.81;5057067;28;20059;-80
2024/01/13 02:08:36;;;;;;;40.53;19.45;;;;;;;-1.99;74.41;97624.44;5055914;28;20053;-80
2024/01/13 02:11:09;;;;;;;40.20;18.58;;;;;;;-1.98;74.48;97620.13;5042049;28;20152;-79
2024/01/13 02:13:38;;;;;;;43.95;19.77;;;;;;;-2.00;74.39;97619.38;5041820;28;20083;-81
2024/01/13 02:16:07;;;;;;;47.50;19.90;;;;;;;-2.05;74.05;97611.97;5047821;28;20056;-80
2024/01/13 02:18:35;;;;;;;50.75;21.45;;;;;;;-2.10;73.86;97609.63;5036467;28;20060;-81
2024/01/13 02:21:09;;;;;;;46.67;20.88;;;;;;;-2.20;74.20;97621.22;5053556;28;20053;-79
2024/01/13 02:23:39;;;;;;;45.95;22.10;;;;;;;-2.23;75.48;97613.72;5056239;28;20057;-80
2024/01/13 02:26:07;;;;;;;41.75;19.27;;;;;;;-2.14;75.85;97608.13;5054843;28;20045;-80
2024/01/13 02:28:35;;;;;;;48.58;21.67;;;;;;;-2.12;75.13;97606.34;5055453;28;20045;-83
2024/01/13 02:31:15;;;;;;;48.67;20.80;;;;;;;-2.18;74.91;97601.53;5046998;28;20041;-79
2024/01/13 02:33:47;;;;;;;50.53;22.00;;;;;;;-2.27;74.90;97599.44;5054729;28;20128;-80
2024/01/13 02:36:15;;;;;;;45.60;19.65;;;;;;;-2.30;75.28;97597.03;5054994;28;20185;-81
2024/01/13 02:38:44;;;;;;;48.08;21.75;;;;;;;-2.26;75.33;97597.72;5056230;28;20102;-81
2024/01/13 02:41:12;;;;;;;41.47;19.25;;;;;;;-2.22;75.54;97594.09;5057494;28;20056;-80
2024/01/13 02:43:40;;;;;;;41.78;18.52;;;;;;;-2.21;75.48;97595.72;5057035;28;20069;-82
2024/01/13 02:46:07;;;;;;;46.38;19.05;;;;;;;-2.16;75.32;97583.56;5050777;28;20041;-79
2024/01/13 02:48:40;;;;;;;46.97;20.00;;;;;;;-2.14;75.57;97589.44;5039060;28;20512;-82
2024/01/13 02:51:12;;;;;;;47.00;19.52;;;;;;;-2.09;75.51;97590.81;5057430;28;20512;-82
2024/01/13 02:53:40;;;;;;;46.20;19.73;;;;;;;-2.00;75.23;97593.81;5058725;28;20045;-80
2024/01/13 02:56:09;;;;;;;41.80;18.27;;;;;;;-1.98;75.30;97594.56;5056839;28;20052;-80
2024/01/13 02:58:37;;;;;;;41.38;19.58;;;;;;;-1.97;75.27;97594.50;5058685;28;20056;-81
2024/01/13 03:01:12;;;;;;;46.95;20.83;;;;;;;-2.03;74.57;97594.81;5048823;28;20053;-80
2024/01/13 03:03:40;;;;;;;43.35;18.85;;;;;;;-2.07;74.91;97594.13;5058374;28;20068;-79
2024/01/13 03:06:10;;;;;;;41.40;18.50;;;;;;;-2.08;74.42;97587.38;5058602;28;20045;-80
2024/01/13 03:08:38;;;;;;;46.17;18.83;;;;;;;-2.13;74.40;97585.94;5057903;28;20071;-80
2024/01/13 03:11:11;;;;;;;43.00;18.75;;;;;;;-2.17;74.06;97582.72;5043606;28;20111;-81
2024/01/13 03:13:40;;;;;;;44.55;19.25;;;;;;;-2.25;73.77;97574.63;5037694;28;20133;-80
2024/01/13 03:16:07;;;;;;;48.15;18.92;;;;;;;-2.29;74.07;97578.25;5041867;28;20046;-83
2024/01/13 03:18:35;;;;;;;47.22;19.50;;;;;;;-2.33;74.01;97571.63;5038553;28;20165;-82
2024/01/13 03:21:08;;;;;;;45.25;21.45;;;;;;;-2.39;73.78;97571.94;5055164;28;20057;-81
2024/01/13 03:23:37;;;;;;;52.28;21.33;;;;;;;-2.44;73.95;97563.69;5057688;28;20056;-81
2024/01/13 03:26:05;;;;;;;43.28;19.38;;;;;;;-2.49;73.86;97567.31;5055659;28;20504;-78
2024/01/13 03:28:33;;;;;;;46.72;20.13;;;;;;;-2.52;74.43;97566.63;5056044;28;20044;-80
2024/01/13 03:31:09;;;;;;;48.42;19.83;;;;;;;-2.51;74.69;97563.19;5052121;28;20485;-79
2024/01/13 03:33:38;;;;;;;46.67;19.15;;;;;;;-2.53;74.85;97560.69;5037801;28;20056;-81
2024/01/13 03:36:08;;;;;;;46.85;19.92;;;;;;;-2.48;75.32;97563.00;5037188;28;20493;-79
2024/01/13 03:38:35;;;;;;;43.03;19.15;;;;;;;-2.43;75.43;97566.16;5043155;28;20050;-81
2024/01/13 03:41:10;;;;;;;49.67;21.40;;;;;;;-2.44;74.69;97558.59;5037134;28;20049;-83
2024/01/13 03:43:39;;;;;;;48.35;20.80;;;;;;;-2.45;74.71;97562.03;5037288;28;20057;-81
2024/01/13 03:46:07;;;;;;;45.70;19.30;;;;;;;-2.40;74.90;97563.44;5041381;28;20054;-80
2024/01/13 03:48:34;;;;;;;48.90;19.70;;;;;;;-2.35;74.46;97558.09;5050916;28;20041;-79
2024/01/13 03:51:03;;;;;;;46.33;20.50;;;;;;;-2.29;74.86;97552.69;5036536;28;20126;-83
2024/01/13 03:53:32;;;;;;;42.65;20.23;;;;;;;-2.25;74.94;97563.56;5043503;28;20072;-81
2024/01/13 03:56:02;;;;;;;50.00;20.63;;;;;;;-2.26;75.06;97562.75;5057440;28;20397;-80
2024/01/13 03:58:29;;;;;;;46.53;20.15;;;;;;;-2.26;74.66;97561.94;5056451;28;20056;-78
2024/01/13 04:00:58;;;;;;;47.63;19.63;;;;;;;-2.30;74.42;97554.44;5053205;28;20172;-79
2024/01/13 04:03:26;;;;;;;43.17;18.38;;;;;;;-2.31;74.28;97547.66;5045653;28;20477;-82
2024/01/13 04:05:54;;;;;;;51.40;20.30;;;;;;;-2.29;74.24;97537.34;5057162;28;20053;-80
2024/01/13 04:08:22;;;;;;;43.22;19.40;;;;;;;-2.34;73.46;97544.41;5055623;28;20045;-81
2024/01/13 04:10:50;;;;;;;49.08;19.92;;;;;;;-2.40;73.64;97534.53;5056925;28;20049;-81
2024/01/13 04:13:17;;;;;;;52.83;23.45;;;;;;;-2.47;73.81;97530.63;5046068;28;20081;-81
2024/01/13 04:15:45;;;;;;;57.33;22.73;;;;;;;-2.55;73.76;97526.72;5041740;28;20049;-80
2024/01/13 04:18:14;;;;;;;51.65;21.73;;;;;;;-2.59;73.90;97535.44;5057371;28;20076;-81
2024/01/13 04:20:42;;;;;;;57.10;23.63;;;;;;;-2.62;73.91;97540.72;5056862;28;20079;-82
2024/01/13 04:23:10;;;;;;;54.00;21.98;;;;;;;-2.60;74.48;97545.72;5049752;28;20051;-79
2024/01/13 04:25:37;;;;;;;55.45;23.45;;;;;;;-2.53;74.73;97552.22;5036745;28;20053;-81
2024/01/13 04:28:05;;;;;;;50.05;20.77;;;;;;;-2.49;74.50;97546.03;5036689;28;20108;-81
2024/01/13 04:30:33;;;;;;;56.92;24.35;;;;;;;-2.43;75.01;97539.78;5045843;28;20041;-78
2024/01/13 04:33:01;;;;;;;52.58;23.10;;;;;;;-2.37;74.98;97534.38;5045824;28;20127;-80
2024/01/13 04:35:30;;;;;;;57.45;23.08;;;;;;;-2.34;75.12;97526.53;5056276;28;20079;-78
2024/01/13 04:37:58;;;;;;;57.83;22.88;;;;;;;-2.28;75.06;97516.81;5039445;28;20045;-80
2024/01/13 04:40:25;;;;;;;49.50;21.50;;;;;;;-2.26;74.88;97519.28;5040162;28;20081;-80
2024/01/13 04:42:53;;;;;;;58.05;22.25;;;;;;;-2.25;75.05;97515.84;5057223;28;20501;-79
2024/01/13 04:45:21;;;;;;;49.95;20.20;;;;;;;-2.22;74.73;97500.34;5055736;28;20135;-80
2024/01/13 04:47:48;;;;;;;51.70;20.80;;;;;;;-2.17;74.95;97492.44;5057075;28;20147;-79
2024/01/13 04:50:16;;;;;;;45.83;20.85;;;;;;;-2.12;75.12;97495.56;5057054;28;20116;-80
2024/01/13 04:52:46;;;;;;;45.80;20.83;;;;;;;-2.20;73.83;97490.88;5052729;28;20091;-79
2024/01/13 04:55:14;;;;;;;41.95;19.42;;;;;;;-2.32;73.84;97491.50;5036931;28;20050;-79
2024/01/13 04:57:41;;;;;;;44.47;19.23;;;;;;;-2.41;73.78;97481.75;5036677;28;20049;-79
2024/01/13 05:00:10;;;;;;;44.65;18.42;;;;;;;-2.54;73.67;97487.50;5050419;28;20049;-81
2024/01/13 05:02:37;;;;;;;40.08;18.55;;;;;;;-2.62;74.74;97487.09;5035609;28;20199;-80
2024/01/13 05:05:15;;;;;;;44.45;18.70;;;;;;;-2.56;74.95;97478.25;5037747;28;20072;-79
2024/01/13 05:07:44;;;;;;;42.55;19.85;;;;;;;-2.55;74.50;97480.75;5037874;28;20037;-79
2024/01/13 05:10:12;;;;;;;41.75;17.35;;;;;;;-2.58;74.46;97483.47;5050995;28;20135;-79
2024/01/13 05:12:39;;;;;;;40.58;17.50;;;;;;;-2.57;74.49;97477.44;5056275;28;20136;-79
2024/01/13 05:15:08;;;;;;;40.97;18.40;;;;;;;-2.63;73.78;97484.59;5042166;28;20073;-81
2024/01/13 05:17:35;;;;;;;38.80;16.55;;;;;;;-2.66;74.11;97475.38;5016385;28;20049;-80
2024/01/13 05:20:05;;;;;;;42.35;18.33;;;;;;;-2.66;74.13;97472.81;5041456;28;20049;-82
2024/01/13 05:22:32;;;;;;;43.10;17.83;;;;;;;-2.66;74.58;97472.81;5055209;28;20052;-81
2024/01/13 05:25:03;;;;;;;36.63;16.23;;;;;;;-2.59;75.48;97469.03;5053759;28;20474;-87
2024/01/13 05:27:30;;;;;;;38.53;16.27;;;;;;;-2.49;75.22;97472.78;5056546;28;20575;-81
2024/01/13 05:29:58;;;;;;;34.05;15.85;;;;;;;-2.40;75.32;97468.09;5054360;28;20053;-80
2024/01/13 05:32:25;;;;;;;35.17;15.10;;;;;;;-2.32;75.00;97481.28;5036431;28;20060;-80
2024/01/13 05:34:53;;;;;;;32.83;15.55;;;;;;;-2.27;74.65;97471.66;5035590;28;20081;-79
2024/01/13 05:37:20;;;;;;;39.97;16.15;;;;;;;-2.24;74.62;97468.94;5034777;28;20053;-82
2024/01/13 05:39:48;;;;;;;55.63;23.95;;;;;;;-2.20;74.89;97460.19;5036039;28;20075;-79
2024/01/13 05:42:17;;;;;;;54.38;23.92;;;;;;;-2.17;75.09;97472.81;5035279;28;20137;-79
2024/01/13 05:44:45;;;;;;;47.78;19.88;;;;;;;-2.11;74.75;97469.94;5036027;28;20072;-81
2024/01/13 05:47:14;;;;;;;38.10;16.52;;;;;;;-2.13;74.53;97458.13;5036189;28;20045;-79
2024/01/13 05:49:42;;;;;;;34.03;14.60;;;;;;;-2.15;74.27;97473.56;5050734;28;20140;-78
2024/01/13 05:52:10;;;;;;;35.65;15.05;;;;;;;-2.16;74.33;97464.25;5055245;28;20428;-79
2024/01/13 05:54:38;;;;;;;33.90;14.32;;;;;;;-2.17;74.16;97467.69;5049638;28;20081;-80
2024/01/13 05:57:06;;;;;;;31.73;14.60;;;;;;;-2.24;73.91;97466.38;5053010;28;20064;-79
2024/01/13 05:59:35;;;;;;;35.33;15.40;;;;;;;-2.23;74.24;97473.16;5041354;28;20072;-79
2024/01/13 06:02:03;;;;;;;33.20;15.50;;;;;;;-2.24;74.16;97484.25;5036563;28;20072;-79
2024/01/13 06:04:30;;;;;;;31.02;14.20;;;;;;;-2.28;74.34;97480.22;5035531;28;20495;-80
2024/01/13 06:06:58;;;;;;;30.05;13.45;;;;;;;-2.34;74.24;97472.88;5035009;28;20132;-81
2024/01/13 06:09:25;;;;;;;36.20;15.35;;;;;;;-2.44;73.83;97459.75;5047321;28;20508;-82
2024/01/13 06:11:53;;;;;;;37.17;15.05;;;;;;;-2.55;73.64;97470.53;5055230;28;20072;-81
2024/01/13 06:14:20;;;;;;;35.05;16.25;;;;;;;-2.63;74.12;97464.16;5054429;28;20077;-78
2024/01/13 06:16:49;;;;;;;38.22;16.80;;;;;;;-2.64;74.88;97465.91;5052739;28;20053;-81
2024/01/13 06:19:17;;;;;;;42.22;17.20;;;;;;;-2.63;75.07;97467.53;5043971;28;20099;-79
2024/01/13 06:21:45;;;;;;;41.58;17.40;;;;;;;-2.57;75.03;97469.78;5034751;28;20050;-80
2024/01/13 06:24:12;;;;;;;44.70;18.05;;;;;;;-2.52;75.00;97470.34;5043354;28;20487;-80
2024/01/13 06:26:40;;;;;;;60.83;27.35;;;;;;;-2.43;74.93;97458.03;5054614;28;20064;-79
2024/01/13 06:29:09;;;;;;;48.13;19.55;;;;;;;-2.40;74.44;97450.22;5044814;28;20103;-79
2024/01/13 06:31:37;;;;;;;40.88;18.05;;;;;;;-2.44;74.39;97444.44;5047166;28;20045;-79
2024/01/13 06:34:05;;;;;;;40.42;19.05;;;;;;;-2.38;74.90;97445.84;5054644;28;20131;-79
2024/01/13 06:36:34;;;;;;;45.17;17.10;;;;;;;-2.35;75.09;97445.69;5066840;22;20069;-78
2024/01/13 06:39:01;;;;;;;39.42;17.17;;;;;;;-2.29;74.96;97460.69;5011874;28;20106;-78
2024/01/13 06:41:29;;;;;;;33.63;15.32;;;;;;;-2.29;74.65;97455.59;5000397;28;20082;-79
2024/01/13 06:43:57;;;;;;;31.90;15.52;;;;;;;-2.26;74.59;97455.41;5003079;28;20078;-78
2024/01/13 06:46:24;;;;;;;33.42;13.98;;;;;;;-2.27;74.47;97461.44;5007262;28;20601;-77
2024/01/13 06:48:52;;;;;;;32.05;14.07;;;;;;;-2.21;74.59;97460.28;5011316;28;20055;-77
2024/01/13 06:51:21;;;;;;;33.15;14.02;;;;;;;-2.18;74.86;97448.16;4997728;28;20137;-79
2024/01/13 06:53:48;;;;;;;33.80;13.40;;;;;;;-2.17;74.51;97447.25;5002354;28;20046;-77
2024/01/13 06:56:16;;;;;;;28.95;12.82;;;;;;;-2.22;73.92;97440.75;5015277;28;20085;-80
2024/01/13 06:58:44;;;;;;;29.88;13.75;;;;;;;-2.34;74.22;97450.72;5009294;28;20415;-77
2024/01/13 07:01:13;;;;;;;28.02;13.20;;;;;;;-2.39;74.24;97454.41;5002283;28;20064;-81
2024/01/13 07:03:42;;;;;;;30.83;14.07;;;;;;;-2.45;73.81;97449.59;5013221;28;20053;-80
2024/01/13 07:06:10;;;;;;;35.30;13.65;;;;;;;-2.44;74.50;97459.75;5013410;28;20057;-81
2024/01/13 07:08:42;;;;;;;27.33;12.60;;;;;;;-2.36;75.34;97464.44;5002110;28;20093;-79
2024/01/13 07:11:13;;;;;;;28.63;12.55;;;;;;;-2.26;75.19;97459.69;4995746;28;20054;-80
2024/01/13 07:13:42;;;;;;;30.20;12.93;;;;;;;-2.29;74.08;97465.81;5000237;28;20509;-81
2024/01/13 07:16:09;;;;;;;29.85;14.07;;;;;;;-2.42;73.97;97455.41;5002422;28;20089;-80
2024/01/13 07:18:37;;;;;;;36.35;16.33;;;;;;;-2.47;74.17;97457.38;5002803;28;20480;-77
2024/01/13 07:21:05;;;;;;;26.20;11.82;;;;;;;-2.43;74.77;97455.47;5012514;28;20060;-81
2024/01/13 07:23:33;;;;;;;30.73;11.93;;;;;;;-2.43;73.95;97443.50;5004515;28;20047;-81
2024/01/13 07:26:02;;;;;;;24.58;11.05;;;;;;;-2.51;73.92;97449.03;4995266;28;20097;-81
2024/01/13 07:28:30;;;;;;;28.25;12.07;;;;;;;-2.55;73.82;97450.09;5030583;28;20073;-84
2024/01/13 07:30:57;;;;;;;28.75;13.52;;;;;;;-2.54;74.34;97451.72;5025857;28;20070;-85
2024/01/13 07:33:25;;;;;;;27.48;11.07;;;;;;;-2.51;74.05;97446.47;5016290;28;20058;-80
2024/01/13 07:35:53;;;;;;;28.00;11.82;;;;;;;-2.54;73.83;97451.72;4999151;28;20494;-81
2024/01/13 07:38:21;;;;;;;26.25;11.93;;;;;;;-2.55;74.11;97452.66;4997403;28;20101;-81
2024/01/13 07:40:48;;;;;;;32.72;12.82;;;;;;;-2.52;73.97;97451.66;5007606;28;20056;-79
2024/01/13 07:43:17;;;;;;;32.30;14.02;;;;;;;-2.55;73.99;97434.75;5016463;28;20046;-84
2024/01/13 07:45:45;;;;;;;34.63;13.90;;;;;;;-2.56;73.88;97422.91;5011703;28;20054;-82
2024/01/13 07:48:12;;;;;;;32.38;14.32;;;;;;;-2.55;74.93;97418.63;5006492;28;20526;-84
2024/01/13 07:50:40;;;;;;;36.33;15.13;;;;;;;-2.46;74.75;97412.19;4996693;28;20498;-82
2024/01/13 07:53:08;;;;;;;35.83;16.77;;;;;;;-2.55;74.36;97411.78;5012812;28;20137;-83
2024/01/13 07:55:35;;;;;;;40.47;16.65;;;;;;;-2.64;74.46;97403.78;5016101;28;20133;-80
2024/01/13 07:58:03;;;;;;;40.13;16.63;;;;;;;-2.72;74.31;97396.50;5016675;28;20046;-82
2024/01/13 08:00:32;;;;;;;36.47;15.45;;;;;;;-2.78;75.07;97391.72;5016923;28;20046;-81
2024/01/13 08:03:00;;;;;;;35.95;15.75;;;;;;;-2.72;75.84;97382.00;5016124;28;20422;-80
2024/01/13 08:05:28;;;;;;;40.47;15.10;;;;;;;-2.63;75.57;97377.31;5013211;28;20042;-82
2024/01/13 08:08:01;;;;;;;33.20;13.73;;;;;;;-2.67;74.74;97379.19;5013549;28;20050;-80
2024/01/13 08:10:29;;;;;;;42.53;16.35;;;;;;;-2.81;74.30;97387.59;5008027;28;20046;-79
2024/01/13 08:12:57;;;;;;;37.00;15.95;;;;;;;-2.97;74.83;97402.88;5004401;28;20049;-80
2024/01/13 08:15:24;;;;;;;37.58;15.13;;;;;;;-3.01;75.46;97413.31;5000387;28;20054;-79
2024/01/13 08:17:53;;;;;;;36.97;15.40;;;;;;;-2.94;76.37;97407.00;5011854;28;20046;-79
2024/01/13 08:20:24;;;;;;;30.35;14.48;;;;;;;-2.90;76.04;97399.09;5003060;28;20077;-79
2024/01/13 08:22:52;;;;;;;29.83;12.82;;;;;;;-2.88;75.67;97403.31;5002569;28;20153;-81
2024/01/13 08:25:19;;;;;;;33.03;12.65;;;;;;;-2.82;75.57;97415.75;4998406;28;20109;-81
2024/01/13 08:27:47;;;;;;;37.15;14.95;;;;;;;-2.80;75.33;97419.06;5016443;28;20046;-80
2024/01/13 08:30:15;;;;;;;38.80;16.00;;;;;;;-2.85;74.98;97431.25;5015769;28;20058;-79
2024/01/13 08:32:42;;;;;;;36.42;15.35;;;;;;;-2.82;75.71;97431.06;5016585;28;20050;-80
2024/01/13 08:35:11;;;;;;;36.63;15.02;;;;;;;-2.73;76.01;97426.34;5016094;28;20054;-80
2024/01/13 08:37:39;;;;;;;35.55;15.88;;;;;;;-2.66;75.32;97429.41;5012650;28;20137;-82
2024/01/13 08:40:09;;;;;;;34.58;13.85;;;;;;;-2.71;75.07;97433.94;5012335;28;20413;-79
2024/01/13 08:42:37;;;;;;;30.63;14.23;;;;;;;-2.71;74.85;97423.72;5004344;28;20096;-81
2024/01/13 08:45:06;;;;;;;31.35;16.30;;;;;;;-2.73;74.62;97423.78;5012323;28;20078;-79
2024/01/13 08:47:33;;;;;;;35.53;15.07;;;;;;;-2.77;74.70;97424.03;5010531;28;20125;-82
2024/01/13 08:50:02;;;;;;;32.53;15.82;;;;;;;-2.81;74.51;97430.19;4996565;28;20507;-79
2024/01/13 08:52:31;;;;;;;33.92;15.13;;;;;;;-2.81;74.73;97432.75;5000086;28;20048;-81
2024/01/13 08:54:59;;;;;;;38.75;17.58;;;;;;;-2.75;75.19;97437.53;5002240;28;20473;-79
2024/01/13 08:57:26;;;;;;;36.35;16.48;;;;;;;-2.72;75.07;97442.47;4996875;28;20101;-79
2024/01/13 08:59:54;;;;;;;39.58;16.98;;;;;;;-2.71;75.00;97439.84;5005489;28;20065;-81
2024/01/13 09:02:22;;;;;;;43.45;16.52;;;;;;;-2.69;74.71;97439.75;5013206;28;20398;-80
2024/01/13 09:04:49;;;;;;;37.30;15.55;;;;;;;-2.70;74.98;97433.81;5014545;28;20448;-80
2024/01/13 09:07:17;;;;;;;38.92;16.33;;;;;;;-2.64;75.59;97431.88;5010065;28;20052;-80
2024/01/13 09:09:46;;;;;;;45.95;19.50;;;;;;;-2.59;75.23;97420.50;5007927;28;20548;-83
2024/01/13 09:12:14;;;;;;;36.22;15.40;;;;;;;-2.57;74.72;97426.34;5006076;28;20529;-76
2024/01/13 09:14:42;;;;;;;38.45;17.67;;;;;;;-2.60;74.46;97429.09;5030160;28;20064;-80
2024/01/13 09:17:10;;;;;;;34.30;15.13;;;;;;;-2.63;74.56;97436.06;5032144;28;20061;-78
2024/01/13 09:19:38;;;;;;;32.33;14.70;;;;;;;-2.65;74.89;97432.75;5020427;28;20085;-78
2024/01/13 09:22:05;;;;;;;37.10;15.60;;;;;;;-2.63;75.30;97430.97;5017963;28;20432;-77
2024/01/13 09:24:33;;;;;;;41.90;16.10;;;;;;;-2.64;74.82;97429.31;5014871;28;20056;-79
2024/01/13 09:27:02;;;;;;;37.58;14.75;;;;;;;-2.64;75.02;97430.13;5015413;28;20049;-78
2024/01/13 09:29:30;;;;;;;35.97;15.98;;;;;;;-2.57;75.80;97431.47;5014617;28;20133;-78
2024/01/13 09:31:57;;;;;;;67.57;31.17;;;;;;;-2.52;75.57;97424.38;5013995;28;20050;-76
2024/01/13 09:34:25;;;;;;;39.15;17.17;;;;;;;-2.51;75.20;97418.38;5013726;28;20410;-81
2024/01/13 09:36:53;;;;;;;38.55;16.35;;;;;;;-2.45;75.28;97418.94;5013990;28;20042;-81
2024/01/13 09:39:21;;;;;;;40.50;15.52;;;;;;;-2.39;75.81;97411.78;5013721;28;20050;-80
2024/01/13 09:41:52;;;;;;;39.92;16.52;;;;;;;-2.41;75.35;97417.88;5013486;28;20486;-77
2024/01/13 09:44:23;;;;;;;39.95;16.42;;;;;;;-2.42;75.42;97411.13;5013819;28;20494;-79
2024/01/13 09:46:53;;;;;;;44.75;17.10;;;;;;;-2.40;75.13;97406.78;5013198;28;20053;-79
2024/01/13 09:49:24;;;;;;;38.15;15.80;;;;;;;-2.39;74.91;97416.91;5013000;28;20056;-79
2024/01/13 09:51:53;;;;;;;45.70;18.90;;;;;;;-2.36;75.43;97408.25;5012911;28;20050;-79
2024/01/13 09:54:23;;;;;;;39.80;16.05;;;;;;;-2.38;75.70;97415.19;5012748;28;20112;-79
2024/01/13 09:56:53;;;;;;;49.15;19.73;;;;;;;-2.38;75.40;97410.06;5013366;28;20049;-79
2024/01/13 09:59:22;;;;;;;46.10;17.30;;;;;;;-2.40;75.85;97411.88;5013454;28;20057;-80
2024/01/13 10:01:51;;;;;;;47.88;18.70;;;;;;;-2.42;75.75;97398.38;5013111;28;20050;-80
2024/01/13 10:04:19;;;;;;;45.00;17.13;;;;;;;-2.52;75.91;97388.59;5013266;28;20076;-79
2024/01/13 10:06:48;;;;;;;43.28;18.95;;;;;;;-2.56;75.95;97387.16;5013479;28;20053;-79
2024/01/13 10:09:17;;;;;;;45.08;18.38;;;;;;;-2.56;75.87;97371.81;5017777;28;20060;-80
2024/01/13 10:12:02;;;;;;;48.92;19.95;;;;;;;-2.57;76.06;97367.59;5031982;28;20101;-75
2024/01/13 10:14:31;;;;;;;52.28;23.00;;;;;;;-2.57;76.13;97367.59;5031954;28;20049;-77
2024/01/13 10:17:01;;;;;;;73.22;31.52;;;;;;;-2.56;76.10;97370.97;5023822;28;20054;-78
2024/01/13 10:19:29;;;;;;;59.78;23.67;;;;;;;-2.55;76.39;97360.69;5015151;28;20072;-79
2024/01/13 10:21:57;;;;;;;58.42;23.63;;;;;;;-2.56;76.47;97358.19;5013384;28;20068;-78
2024/01/13 10:24:25;;;;;;;53.75;23.10;;;;;;;-2.54;76.36;97344.44;5013262;28;20077;-82
2024/01/13 10:26:52;;;;;;;58.67;23.27;;;;;;;-2.49;76.66;97346.78;5013186;28;20092;-87
2024/01/13 10:29:20;;;;;;;69.55;27.13;;;;;;;-2.47;76.07;97346.66;5013115;28;20046;-83
2024/01/13 10:31:51;;;;;;;76.65;28.10;;;;;;;-2.50;76.46;97348.47;5012640;28;20150;-84
2024/01/13 10:34:19;;;;;;;63.35;26.17;;;;;;;-2.45;76.91;97352.53;5012954;28;20073;-82
2024/01/13 10:36:47;;;;;;;75.60;26.77;;;;;;;-2.39;76.59;97341.97;5012952;28;20053;-83
2024/01/13 10:39:15;;;;;;;71.32;29.80;;;;;;;-2.39;76.08;97337.69;5013019;28;20565;-84
2024/01/13 10:41:45;;;;;;;64.43;27.00;;;;;;;-2.37;76.52;97356.31;5013395;28;20056;-79
2024/01/13 10:44:14;;;;;;;77.38;30.80;;;;;;;-2.37;76.61;97358.06;5012826;28;20560;-79
2024/01/13 10:46:47;;;;;;;73.75;30.75;;;;;;;-2.42;76.58;97355.75;5012783;28;20049;-80
2024/01/13 10:49:19;;;;;;;;;;;;;;;-2.42;76.91;97357.50;5012935;28;20429;-79
2024/01/13 10:51:53;;;;;;;78.80;30.95;;;;;;;-2.50;76.45;97365.53;5012544;28;20467;-84
2024/01/13 10:54:25;;;;;;;81.43;32.58;;;;;;;-2.60;76.46;97360.13;5012308;28;20090;-82
2024/01/13 10:56:53;;;;;;;77.40;31.98;;;;;;;-2.60;77.00;97342.25;5012710;28;20046;-80
2024/01/13 10:59:22;;;;;;;84.18;33.35;;;;;;;-2.54;77.06;97323.19;5012913;28;20401;-83
2024/01/13 11:01:51;;;;;;;82.43;33.35;;;;;;;-2.51;77.16;97308.53;5015224;28;20132;-79
2024/01/13 11:04:20;;;;;;;75.38;31.02;;;;;;;-2.43;76.35;97304.72;5020200;28;20064;-83
2024/01/13 11:06:48;;;;;;;85.13;34.63;;;;;;;-2.42;76.31;97296.16;5015834;28;20053;-82
2024/01/13 11:09:18;;;;;;;83.53;32.88;;;;;;;-2.39;76.64;97299.34;5008044;28;20154;-83
2024/01/13 11:11:56;;;;;;;80.55;31.73;;;;;;;-2.33;77.17;97285.44;4997574;28;20057;-79
2024/01/13 11:14:31;;;;;;;72.80;29.80;;;;;;;-2.28;77.07;97298.78;5016860;28;20058;-84
2024/01/13 11:17:00;;;;;;;82.38;32.78;;;;;;;-2.27;76.65;97295.31;5016462;28;20054;-81
2024/01/13 11:19:32;;;;;;;83.40;32.20;;;;;;;-2.28;76.46;97293.66;5015757;28;20108;-79
2024/01/13 11:22:00;;;;;;;82.28;31.38;;;;;;;-2.26;76.17;97285.91;5015922;28;20120;-78
2024/01/13 11:24:27;;;;;;;89.45;32.97;;;;;;;-2.24;76.35;97284.91;5020983;28;20060;-80